createdAt,value
2018-09-19T00:00:06.037Z,100140.08
2018-09-19T00:00:41.217Z,100139.41
2018-09-19T00:01:16.577Z,100140.52
2018-09-19T00:01:51.791Z,100137.89
2018-09-19T00:02:26.969Z,100149.59
2018-09-19T00:03:02.133Z,100145.03
2018-09-19T00:03:37.318Z,100144.80
2018-09-19T00:04:12.665Z,100142.92
2018-09-19T00:04:47.986Z,100142.44
2018-09-19T00:05:23.203Z,100142.81
2018-09-19T00:05:58.520Z,100144.72
2018-09-19T00:06:33.669Z,100141.13
2018-09-19T00:07:08.816Z,100142.61
2018-09-19T00:07:44.622Z,100146.39
2018-09-19T00:08:19.901Z,100145.91
2018-09-19T00:08:55.086Z,100149.86
2018-09-19T00:09:30.279Z,100147.23
2018-09-19T00:10:05.672Z,100147.35
2018-09-19T00:10:41.036Z,100145.23
2018-09-19T00:11:16.341Z,100156.80
2018-09-19T00:11:51.562Z,100153.81
2018-09-19T00:12:26.702Z,100148.91
2018-09-19T00:13:01.878Z,100153.73
2018-09-19T00:13:37.242Z,100153.98
2018-09-19T00:14:12.562Z,100161.88
2018-09-19T00:14:47.979Z,100155.30
2018-09-19T00:15:23.200Z,100152.66
2018-09-19T00:15:58.373Z,100147.08
2018-09-19T00:16:33.765Z,100153.50
2018-09-19T00:17:08.960Z,100159.72
2018-09-19T00:17:44.371Z,100155.17
2018-09-19T00:18:19.712Z,100154.26
2018-09-19T00:18:54.888Z,100154.30
2018-09-19T00:19:30.195Z,100155.73
2018-09-19T00:20:05.756Z,100153.78
2018-09-19T00:20:41.156Z,100152.14
2018-09-19T00:21:16.519Z,100152.27
2018-09-19T00:21:51.813Z,100153.42
2018-09-19T00:22:27.136Z,100152.94
2018-09-19T00:23:02.315Z,100155.22
2018-09-19T00:23:37.537Z,100154.94
2018-09-19T00:24:12.848Z,100156.97
2018-09-19T00:24:48.340Z,100152.34
2018-09-19T00:25:23.534Z,100158.80
2018-09-19T00:25:58.694Z,100152.70
2018-09-19T00:26:33.874Z,100151.98
2018-09-19T00:27:09.051Z,100152.19
2018-09-19T00:27:44.495Z,100156.45
2018-09-19T00:28:20.132Z,100154.33
2018-09-19T00:28:55.326Z,100156.41
2018-09-19T00:29:30.516Z,100153.06
2018-09-19T00:30:05.695Z,100149.16
2018-09-19T00:30:40.965Z,100149.03
2018-09-19T00:31:16.276Z,100148.83
2018-09-19T00:31:51.459Z,100147.72
2018-09-19T00:32:26.645Z,100151.31
2018-09-19T00:33:01.998Z,100147.63
2018-09-19T00:33:37.188Z,100149.43
2018-09-19T00:34:12.486Z,100148.95
2018-09-19T00:34:47.863Z,100152.63
2018-09-19T00:35:22.967Z,100146.48
2018-09-19T00:35:58.145Z,100155.25
2018-09-19T00:36:33.399Z,100150.34
2018-09-19T00:37:08.563Z,100150.91
2018-09-19T00:37:44.138Z,100148.75
2018-09-19T00:38:19.447Z,100149.03
2018-09-19T00:38:54.975Z,100150.19
2018-09-19T00:39:30.138Z,100151.27
2018-09-19T00:40:05.359Z,100147.56
2018-09-19T00:40:40.939Z,100146.68
2018-09-19T00:41:16.308Z,100145.24
2018-09-19T00:41:51.600Z,100145.13
2018-09-19T00:42:26.957Z,100147.28
2018-09-19T00:43:02.163Z,100150.35
2018-09-19T00:43:37.368Z,100146.69
2018-09-19T00:44:12.975Z,100151.59
2018-09-19T00:44:48.272Z,100147.16
2018-09-19T00:45:23.472Z,100148.80
2018-09-19T00:45:58.689Z,100153.34
2018-09-19T00:46:33.861Z,100157.61
2018-09-19T00:47:09.042Z,100155.46
2018-09-19T00:47:44.411Z,100158.45
2018-09-19T00:48:19.925Z,100156.09
2018-09-19T00:48:55.153Z,100156.09
2018-09-19T00:49:30.321Z,100154.89
2018-09-19T00:50:05.687Z,100150.44
2018-09-19T00:50:41.143Z,100154.89
2018-09-19T00:51:16.415Z,100157.41
2018-09-19T00:51:51.629Z,100152.98
2018-09-19T00:52:27.101Z,100153.78
2018-09-19T00:53:02.282Z,100158.37
2018-09-19T00:53:37.499Z,100153.94
2018-09-19T00:54:13.300Z,100163.16
2018-09-19T00:54:48.616Z,100157.53
2018-09-19T00:55:23.788Z,100156.22
2018-09-19T00:55:59.032Z,100153.73
2018-09-19T00:56:34.366Z,100159.48
2018-09-19T00:57:09.580Z,100159.16
2018-09-19T00:57:45.290Z,100158.80
2018-09-19T00:58:20.647Z,100168.64
2018-09-19T00:58:55.834Z,100158.77
2018-09-19T00:59:31.078Z,100161.16
2018-09-19T01:00:06.780Z,100159.36
2018-09-19T01:00:42.270Z,100162.63
2018-09-19T01:01:17.812Z,100154.64
2018-09-19T01:01:53.027Z,100167.56
2018-09-19T01:02:28.202Z,100159.34
2018-09-19T01:03:03.358Z,100161.37
2018-09-19T01:03:38.916Z,100159.45
2018-09-19T01:04:14.548Z,100162.41
2018-09-19T01:04:50.047Z,100162.53
2018-09-19T01:05:25.268Z,100157.48
2018-09-19T01:06:00.433Z,100165.14
2018-09-19T01:06:35.603Z,100166.57
2018-09-19T01:07:10.764Z,100165.64
2018-09-19T01:07:46.421Z,100168.75
2018-09-19T01:08:21.681Z,100171.41
2018-09-19T01:09:38.162Z,100174.49
2018-09-19T01:10:14.067Z,100173.18
2018-09-19T01:10:49.642Z,100171.27
2018-09-19T01:11:24.838Z,100170.94
2018-09-19T01:11:59.990Z,100172.84
2018-09-19T01:12:35.144Z,100177.84
2018-09-19T01:13:10.389Z,100164.95
2018-09-19T01:13:45.718Z,100169.50
2018-09-19T01:14:21.011Z,100175.14
2018-09-19T01:14:56.206Z,100175.69
2018-09-19T01:15:31.349Z,100170.64
2018-09-19T01:16:07.259Z,100170.07
2018-09-19T01:16:42.710Z,100175.69
2018-09-19T01:17:20.288Z,100179.25
2018-09-19T01:17:55.646Z,100180.12
2018-09-19T01:18:32.116Z,100177.24
2018-09-19T01:19:07.517Z,100172.97
2018-09-19T01:19:43.173Z,100178.70
2018-09-19T01:20:19.537Z,100177.78
2018-09-19T01:20:54.869Z,100177.53
2018-09-19T01:21:30.057Z,100176.42
2018-09-19T01:22:05.294Z,100178.48
2018-09-19T01:22:40.557Z,100178.48
2018-09-19T01:23:15.972Z,100177.39
2018-09-19T01:23:51.432Z,100178.14
2018-09-19T01:24:26.683Z,100179.30
2018-09-19T01:25:02.041Z,100176.53
2018-09-19T01:25:37.696Z,100164.12
2018-09-19T01:26:13.572Z,100178.11
2018-09-19T01:26:49.131Z,100179.78
2018-09-19T01:27:25.575Z,100179.30
2018-09-19T01:28:01.197Z,100182.17
2018-09-19T01:28:36.511Z,100181.78
2018-09-19T01:29:12.806Z,100177.52
2018-09-19T01:29:49.061Z,100184.66
2018-09-19T01:30:24.575Z,100177.63
2018-09-19T01:30:59.906Z,100175.57
2018-09-19T01:31:35.441Z,100175.95
2018-09-19T01:32:11.013Z,100176.05
2018-09-19T01:32:47.071Z,100175.93
2018-09-19T01:33:23.630Z,100169.11
2018-09-19T01:33:59.196Z,100182.75
2018-09-19T01:34:34.893Z,100174.73
2018-09-19T01:35:11.191Z,100173.45
2018-09-19T01:35:46.957Z,100176.55
2018-09-19T01:36:22.439Z,100174.02
2018-09-19T01:36:57.961Z,100178.44
2018-09-19T01:37:33.608Z,100176.67
2018-09-19T01:38:09.651Z,100179.52
2018-09-19T01:38:45.302Z,100181.94
2018-09-19T01:39:20.886Z,100176.46
2018-09-19T01:39:56.332Z,100178.59
2018-09-19T01:40:31.812Z,100182.77
2018-09-19T01:41:08.332Z,100184.11
2018-09-19T01:41:43.808Z,100179.78
2018-09-19T01:42:19.415Z,100180.86
2018-09-19T01:42:55.754Z,100177.13
2018-09-19T01:43:31.369Z,100184.69
2018-09-19T01:44:06.709Z,100180.38
2018-09-19T01:44:42.035Z,100183.99
2018-09-19T01:45:17.995Z,100183.63
2018-09-19T01:45:53.309Z,100180.41
2018-09-19T01:46:28.542Z,100176.83
2018-09-19T01:47:05.953Z,100180.26
2018-09-19T01:47:41.298Z,100174.06
2018-09-19T01:48:17.162Z,100176.08
2018-09-19T01:48:52.443Z,100185.02
2018-09-19T01:49:27.743Z,100181.34
2018-09-19T01:50:03.139Z,100171.52
2018-09-19T01:50:39.712Z,100183.74
2018-09-19T01:51:16.329Z,100180.64
2018-09-19T01:51:54.395Z,100181.00
2018-09-19T01:52:29.680Z,100183.84
2018-09-19T01:53:05.490Z,100184.11
2018-09-19T01:53:41.247Z,100184.79
2018-09-19T01:54:16.708Z,100183.49
2018-09-19T01:54:52.008Z,100184.95
2018-09-19T01:55:27.191Z,100187.29
2018-09-19T01:56:02.503Z,100189.95
2018-09-19T01:56:37.658Z,100193.30
2018-09-19T01:57:12.954Z,100181.72
2018-09-19T01:57:48.304Z,100193.66
2018-09-19T01:58:23.526Z,100192.22
2018-09-19T01:58:58.708Z,100188.14
2018-09-19T01:59:34.011Z,100195.46
2018-09-19T02:00:09.421Z,100191.25
2018-09-19T02:00:44.712Z,100194.13
2018-09-19T02:01:20.010Z,100196.15
2018-09-19T02:01:55.201Z,100194.73
2018-09-19T02:02:30.561Z,100196.03
2018-09-19T02:03:05.817Z,100201.19
2018-09-19T02:03:41.024Z,100191.74
2018-09-19T02:04:16.576Z,100194.85
2018-09-19T02:04:51.818Z,100193.31
2018-09-19T02:05:27.520Z,100197.38
2018-09-19T02:06:02.205Z,100194.86
2018-09-19T02:06:37.488Z,100193.30
2018-09-19T02:07:12.890Z,100197.51
2018-09-19T02:07:48.154Z,100192.84
2018-09-19T02:08:23.326Z,100195.83
2018-09-19T02:08:58.535Z,100196.44
2018-09-19T02:09:33.722Z,100194.16
2018-09-19T02:10:09.080Z,100199.53
2018-09-19T02:10:44.560Z,100199.78
2018-09-19T02:11:20.039Z,100205.63
2018-09-19T02:11:55.217Z,100204.22
2018-09-19T02:12:30.377Z,100209.36
2018-09-19T02:13:05.545Z,100206.59
2018-09-19T02:13:40.743Z,100201.41
2018-09-19T02:14:16.148Z,100207.28
2018-09-19T02:14:51.387Z,100204.33
2018-09-19T02:15:26.562Z,100203.48
2018-09-19T02:16:01.736Z,100210.41
2018-09-19T02:16:37.353Z,100210.91
2018-09-19T02:17:12.709Z,100209.84
2018-09-19T02:17:48.035Z,100204.90
2018-09-19T02:18:23.224Z,100204.19
2018-09-19T02:18:58.386Z,100205.98
2018-09-19T02:19:33.540Z,100205.64
2018-09-19T02:20:08.723Z,100212.92
2018-09-19T02:20:44.030Z,100212.09
2018-09-19T02:21:19.388Z,100210.67
2018-09-19T02:21:54.604Z,100209.00
2018-09-19T02:22:30.313Z,100218.06
2018-09-19T02:23:05.678Z,100220.45
2018-09-19T02:23:40.905Z,100214.27
2018-09-19T02:24:16.201Z,100216.76
2018-09-19T02:24:51.411Z,100212.23
2018-09-19T02:25:26.582Z,100215.92
2018-09-19T02:26:01.776Z,100218.45
2018-09-19T02:26:36.958Z,100209.36
2018-09-19T02:27:12.308Z,100214.73
2018-09-19T02:27:47.749Z,100215.46
2018-09-19T02:28:23.352Z,100220.60
2018-09-19T02:28:58.743Z,100217.84
2018-09-19T02:29:34.279Z,100217.71
2018-09-19T02:30:09.561Z,100215.70
2018-09-19T02:30:45.007Z,100220.60
2018-09-19T02:31:20.295Z,100222.88
2018-09-19T02:31:55.478Z,100218.32
2018-09-19T02:32:30.658Z,100218.32
2018-09-19T02:33:06.028Z,100220.00
2018-09-19T02:33:41.234Z,100221.88
2018-09-19T02:34:16.593Z,100217.84
2018-09-19T02:34:51.823Z,100224.53
2018-09-19T02:35:27.017Z,100222.63
2018-09-19T02:36:02.445Z,100223.10
2018-09-19T02:36:37.615Z,100222.16
2018-09-19T02:37:13.043Z,100219.64
2018-09-19T02:37:48.618Z,100211.03
2018-09-19T02:38:23.802Z,100213.81
2018-09-19T02:38:59.223Z,100213.66
2018-09-19T02:39:34.397Z,100216.42
2018-09-19T02:40:09.635Z,100215.11
2018-09-19T02:40:45.065Z,100216.44
2018-09-19T02:41:20.780Z,100217.61
2018-09-19T02:41:55.972Z,100219.66
2018-09-19T02:42:31.127Z,100221.33
2018-09-19T02:43:06.399Z,100225.02
2018-09-19T02:43:41.691Z,100218.23
2018-09-19T02:44:17.498Z,100223.34
2018-09-19T02:44:52.725Z,100218.45
2018-09-19T02:45:27.942Z,100217.87
2018-09-19T02:46:03.221Z,100222.17
2018-09-19T02:46:38.535Z,100217.87
2018-09-19T02:47:13.892Z,100216.89
2018-09-19T02:47:49.218Z,100220.00
2018-09-19T02:48:24.413Z,100227.52
2018-09-19T02:48:59.638Z,100219.06
2018-09-19T02:49:34.813Z,100223.11
2018-09-19T02:50:10.046Z,100221.22
2018-09-19T02:50:45.583Z,100223.96
2018-09-19T02:51:20.803Z,100225.75
2018-09-19T02:51:58.193Z,100224.91
2018-09-19T02:52:33.378Z,100223.23
2018-09-19T02:53:08.785Z,100228.13
2018-09-19T02:53:45.059Z,100226.48
2018-09-19T02:54:20.338Z,100227.79
2018-09-19T02:54:55.507Z,100231.59
2018-09-19T02:55:30.681Z,100225.98
2018-09-19T02:56:06.272Z,100228.50
2018-09-19T02:56:42.114Z,100227.88
2018-09-19T02:57:17.364Z,100233.50
2018-09-19T02:57:52.605Z,100230.40
2018-09-19T02:58:27.891Z,100229.19
2018-09-19T02:59:03.092Z,100232.55
2018-09-19T02:59:38.466Z,100233.14
2018-09-19T03:00:14.003Z,100230.73
2018-09-19T03:00:49.275Z,100229.05
2018-09-19T03:01:24.597Z,100234.67
2018-09-19T03:02:00.299Z,100232.41
2018-09-19T03:02:35.466Z,100235.42
2018-09-19T03:03:10.660Z,100229.30
2018-09-19T03:03:46.346Z,100231.34
2018-09-19T03:04:21.519Z,100230.87
2018-09-19T03:04:56.914Z,100232.80
2018-09-19T03:05:32.306Z,100233.50
2018-09-19T03:06:07.509Z,100233.61
2018-09-19T03:06:42.902Z,100228.36
2018-09-19T03:07:18.326Z,100231.55
2018-09-19T03:07:53.542Z,100237.16
2018-09-19T03:08:29.074Z,100233.33
2018-09-19T03:09:04.810Z,100233.92
2018-09-19T03:09:40.098Z,100229.50
2018-09-19T03:10:15.625Z,100235.23
2018-09-19T03:10:50.837Z,100234.39
2018-09-19T03:11:26.021Z,100232.45
2018-09-19T03:12:01.226Z,100230.45
2018-09-19T03:12:36.530Z,100227.82
2018-09-19T03:13:11.241Z,100230.55
2018-09-19T03:13:46.767Z,100231.03
2018-09-19T03:14:22.487Z,100228.52
2018-09-19T03:14:57.750Z,100230.19
2018-09-19T03:15:32.956Z,100232.20
2018-09-19T03:16:08.147Z,100225.16
2018-09-19T03:16:43.522Z,100228.52
2018-09-19T03:17:18.790Z,100230.30
2018-09-19T03:17:54.244Z,100227.31
2018-09-19T03:18:29.410Z,100224.36
2018-09-19T03:19:04.607Z,100227.56
2018-09-19T03:19:39.800Z,100228.77
2018-09-19T03:20:15.070Z,100225.56
2018-09-19T03:20:50.773Z,100226.40
2018-09-19T03:21:25.994Z,100230.56
2018-09-19T03:22:01.279Z,100232.83
2018-09-19T03:22:36.449Z,100228.05
2018-09-19T03:23:11.719Z,100231.52
2018-09-19T03:23:47.018Z,100229.14
2018-09-19T03:24:22.269Z,100234.50
2018-09-19T03:24:57.470Z,100228.77
2018-09-19T03:25:32.686Z,100232.49
2018-09-19T03:26:08.077Z,100230.45
2018-09-19T03:26:43.540Z,100230.92
2018-09-19T03:27:18.875Z,100232.09
2018-09-19T03:27:54.029Z,100228.62
2018-09-19T03:28:29.262Z,100231.25
2018-09-19T03:29:04.510Z,100220.75
2018-09-19T03:29:39.719Z,100223.30
2018-09-19T03:30:15.372Z,100228.66
2018-09-19T03:30:50.684Z,100222.42
2018-09-19T03:31:26.049Z,100224.72
2018-09-19T03:32:01.285Z,100222.46
2018-09-19T03:32:36.664Z,100223.16
2018-09-19T03:33:11.436Z,100225.30
2018-09-19T03:33:47.057Z,100226.14
2018-09-19T03:34:22.547Z,100223.63
2018-09-19T03:34:57.690Z,100226.40
2018-09-19T03:35:33.404Z,100226.63
2018-09-19T03:36:08.755Z,100223.16
2018-09-19T03:36:44.235Z,100224.61
2018-09-19T03:37:19.630Z,100225.20
2018-09-19T03:37:55.123Z,100227.09
2018-09-19T03:38:30.351Z,100222.69
2018-09-19T03:39:08.255Z,100225.05
2018-09-19T03:39:43.679Z,100225.30
2018-09-19T03:40:18.967Z,100221.59
2018-09-19T03:40:54.172Z,100226.87
2018-09-19T03:41:29.452Z,100222.58
2018-09-19T03:42:04.671Z,100219.95
2018-09-19T03:42:39.854Z,100224.00
2018-09-19T03:43:15.136Z,100226.52
2018-09-19T03:43:50.459Z,100229.61
2018-09-19T03:44:25.699Z,100223.16
2018-09-19T03:45:00.914Z,100221.59
2018-09-19T03:45:36.081Z,100225.30
2018-09-19T03:46:11.302Z,100223.01
2018-09-19T03:46:46.762Z,100229.94
2018-09-19T03:47:22.062Z,100229.50
2018-09-19T03:47:57.246Z,100225.67
2018-09-19T03:48:32.459Z,100224.22
2018-09-19T03:49:08.577Z,100224.25
2018-09-19T03:49:43.938Z,100222.42
2018-09-19T03:50:19.273Z,100220.89
2018-09-19T03:50:54.472Z,100217.64
2018-09-19T03:51:29.655Z,100222.06
2018-09-19T03:52:04.377Z,100224.72
2018-09-19T03:52:39.573Z,100225.78
2018-09-19T03:53:14.902Z,100224.47
2018-09-19T03:53:50.130Z,100225.45
2018-09-19T03:54:25.363Z,100233.08
2018-09-19T03:55:00.575Z,100225.41
2018-09-19T03:55:35.772Z,100229.93
2018-09-19T03:56:11.489Z,100230.30
2018-09-19T03:56:46.762Z,100228.62
2018-09-19T03:57:22.047Z,100230.78
2018-09-19T03:57:57.236Z,100224.58
2018-09-19T03:58:32.604Z,100230.08
2018-09-19T03:59:07.973Z,100228.04
2018-09-19T03:59:43.279Z,100233.03
2018-09-19T04:00:18.664Z,100229.20
2018-09-19T04:00:53.862Z,100231.03
2018-09-19T04:01:29.067Z,100212.86
2018-09-19T04:02:04.957Z,100235.41
2018-09-19T04:02:40.568Z,100232.45
2018-09-19T04:03:15.849Z,100241.53
2018-09-19T04:03:51.140Z,100237.45
2018-09-19T04:04:26.531Z,100236.48
2018-09-19T04:05:01.677Z,100235.66
2018-09-19T04:05:36.830Z,100237.96
2018-09-19T04:06:12.435Z,100236.39
2018-09-19T04:06:47.724Z,100238.28
2018-09-19T04:07:22.954Z,100237.45
2018-09-19T04:07:58.129Z,100240.65
2018-09-19T04:08:32.827Z,100237.18
2018-09-19T04:09:12.555Z,100241.48
2018-09-19T04:09:47.974Z,100239.70
2018-09-19T04:10:23.197Z,100243.15
2018-09-19T04:10:58.431Z,100244.47
2018-09-19T04:11:33.597Z,100246.94
2018-09-19T04:12:08.807Z,100243.73
2018-09-19T04:12:44.122Z,100245.26
2018-09-19T04:13:19.378Z,100240.59
2018-09-19T04:13:54.580Z,100245.62
2018-09-19T04:14:29.749Z,100244.78
2018-09-19T04:15:05.097Z,100248.34
2018-09-19T04:15:40.268Z,100247.51
2018-09-19T04:16:15.596Z,100247.23
2018-09-19T04:16:50.840Z,100247.70
2018-09-19T04:17:26.028Z,100254.78
2018-09-19T04:18:01.273Z,100245.61
2018-09-19T04:18:36.447Z,100247.97
2018-09-19T04:19:11.676Z,100248.55
2018-09-19T04:19:47.211Z,100253.42
2018-09-19T04:20:22.415Z,100254.98
2018-09-19T04:20:57.585Z,100251.41
2018-09-19T04:21:33.123Z,100250.02
2018-09-19T04:22:08.340Z,100255.03
2018-09-19T04:22:43.646Z,100253.81
2018-09-19T04:23:18.879Z,100255.59
2018-09-19T04:23:54.039Z,100255.21
2018-09-19T04:24:29.240Z,100256.41
2018-09-19T04:25:04.853Z,100258.09
2018-09-19T04:25:40.044Z,100254.55
2018-09-19T04:26:15.088Z,100260.64
2018-09-19T04:26:50.136Z,100255.37
2018-09-19T04:27:24.877Z,100263.34
2018-09-19T04:28:00.073Z,100250.51
2018-09-19T04:28:35.258Z,100261.27
2018-09-19T04:29:10.558Z,100259.69
2018-09-19T04:29:45.828Z,100261.16
2018-09-19T04:30:21.141Z,100266.65
2018-09-19T04:30:56.346Z,100263.23
2018-09-19T04:31:31.542Z,100266.59
2018-09-19T04:32:07.005Z,100269.50
2018-09-19T04:32:42.525Z,100264.03
2018-09-19T04:33:17.919Z,100267.48
2018-09-19T04:33:53.119Z,100265.20
2018-09-19T04:34:28.327Z,100272.70
2018-09-19T04:35:03.946Z,100270.87
2018-09-19T04:35:39.111Z,100269.80
2018-09-19T04:36:14.402Z,100264.73
2018-09-19T04:36:50.070Z,100264.83
2018-09-19T04:37:25.281Z,100268.06
2018-09-19T04:38:00.432Z,100268.01
2018-09-19T04:38:35.741Z,100272.58
2018-09-19T04:39:12.413Z,100270.16
2018-09-19T04:39:47.715Z,100279.70
2018-09-19T04:40:22.970Z,100279.03
2018-09-19T04:40:58.145Z,100274.99
2018-09-19T04:41:33.388Z,100279.47
2018-09-19T04:42:08.078Z,100274.80
2018-09-19T04:42:43.644Z,100274.75
2018-09-19T04:43:18.925Z,100276.16
2018-09-19T04:43:54.130Z,100283.33
2018-09-19T04:44:29.312Z,100283.80
2018-09-19T04:45:04.590Z,100276.77
2018-09-19T04:45:39.905Z,100283.09
2018-09-19T04:46:15.261Z,100286.19
2018-09-19T04:46:50.645Z,100284.28
2018-09-19T04:47:25.861Z,100284.72
2018-09-19T04:48:01.059Z,100290.20
2018-09-19T04:48:36.390Z,100289.34
2018-09-19T04:49:11.713Z,100287.66
2018-09-19T04:49:46.988Z,100294.58
2018-09-19T04:50:22.202Z,100291.98
2018-09-19T04:50:57.356Z,100286.37
2018-09-19T04:51:32.670Z,100286.14
2018-09-19T04:52:08.187Z,100289.34
2018-09-19T04:52:43.541Z,100289.20
2018-09-19T04:53:18.947Z,100293.34
2018-09-19T04:53:54.186Z,100290.14
2018-09-19T04:54:29.571Z,100296.34
2018-09-19T04:55:06.182Z,100291.30
2018-09-19T04:55:41.412Z,100297.28
2018-09-19T04:56:16.737Z,100296.77
2018-09-19T04:56:52.214Z,100298.12
2018-09-19T04:57:27.428Z,100302.55
2018-09-19T04:58:02.591Z,100308.66
2018-09-19T04:58:37.988Z,100305.44
2018-09-19T04:59:13.768Z,100303.56
2018-09-19T04:59:49.586Z,100308.16
2018-09-19T05:00:24.831Z,100306.45
2018-09-19T05:01:00.003Z,100303.36
2018-09-19T05:01:35.390Z,100306.92
2018-09-19T05:02:10.705Z,100305.28
2018-09-19T05:02:46.075Z,100303.36
2018-09-19T05:03:21.289Z,100304.77
2018-09-19T05:03:56.510Z,100306.55
2018-09-19T05:04:31.717Z,100307.27
2018-09-19T05:05:06.971Z,100308.51
2018-09-19T05:05:42.396Z,100312.23
2018-09-19T05:06:18.015Z,100312.61
2018-09-19T05:06:53.213Z,100310.83
2018-09-19T05:07:28.442Z,100309.14
2018-09-19T05:08:03.820Z,100307.80
2018-09-19T05:08:39.008Z,100311.16
2018-09-19T05:09:14.333Z,100312.91
2018-09-19T05:09:49.772Z,100311.30
2018-09-19T05:10:25.111Z,100318.46
2018-09-19T05:11:00.300Z,100311.30
2018-09-19T05:11:35.731Z,100309.88
2018-09-19T05:12:11.012Z,100309.14
2018-09-19T05:12:46.324Z,100313.11
2018-09-19T05:13:21.593Z,100316.30
2018-09-19T05:13:56.769Z,100313.28
2018-09-19T05:14:31.971Z,100316.17
2018-09-19T05:15:07.162Z,100307.91
2018-09-19T05:15:42.567Z,100315.03
2018-09-19T05:16:18.126Z,100309.45
2018-09-19T05:16:53.384Z,100317.98
2018-09-19T05:17:28.620Z,100311.97
2018-09-19T05:18:04.007Z,100315.20
2018-09-19T05:18:39.194Z,100312.61
2018-09-19T05:19:14.557Z,100319.56
2018-09-19T05:19:49.948Z,100311.87
2018-09-19T05:20:25.546Z,100319.37
2018-09-19T05:21:00.720Z,100317.48
2018-09-19T05:21:35.920Z,100319.91
2018-09-19T05:22:11.767Z,100316.00
2018-09-19T05:22:47.217Z,100324.31
2018-09-19T05:23:22.534Z,100322.63
2018-09-19T05:23:57.802Z,100323.97
2018-09-19T05:24:32.978Z,100318.46
2018-09-19T05:25:08.209Z,100323.94
2018-09-19T05:25:43.583Z,100318.83
2018-09-19T05:26:19.346Z,100323.56
2018-09-19T05:26:54.880Z,100323.67
2018-09-19T05:27:30.101Z,100322.09
2018-09-19T05:28:05.287Z,100328.94
2018-09-19T05:28:41.568Z,100323.53
2018-09-19T05:29:16.846Z,100331.27
2018-09-19T05:29:52.266Z,100319.94
2018-09-19T05:30:27.574Z,100328.80
2018-09-19T05:31:02.801Z,100321.98
2018-09-19T05:31:37.988Z,100322.69
2018-09-19T05:32:13.533Z,100326.86
2018-09-19T05:32:48.892Z,100320.24
2018-09-19T05:33:24.119Z,100325.48
2018-09-19T05:33:59.328Z,100325.48
2018-09-19T05:34:34.513Z,100326.16
2018-09-19T05:35:09.732Z,100321.60
2018-09-19T05:35:45.292Z,100329.55
2018-09-19T05:36:20.561Z,100327.61
2018-09-19T05:36:55.766Z,100330.86
2018-09-19T05:37:30.935Z,100326.55
2018-09-19T05:38:06.152Z,100325.95
2018-09-19T05:38:42.082Z,100327.08
2018-09-19T05:39:17.419Z,100323.05
2018-09-19T05:39:52.771Z,100323.72
2018-09-19T05:40:27.939Z,100322.86
2018-09-19T05:41:03.266Z,100323.70
2018-09-19T05:41:38.433Z,100327.55
2018-09-19T05:42:13.895Z,100328.13
2018-09-19T05:42:49.309Z,100330.75
2018-09-19T05:43:24.522Z,100326.99
2018-09-19T05:43:59.732Z,100330.19
2018-09-19T05:44:34.941Z,100327.56
2018-09-19T05:45:10.189Z,100326.99
2018-09-19T05:45:45.793Z,100321.67
2018-09-19T05:46:21.271Z,100324.42
2018-09-19T05:46:56.707Z,100331.73
2018-09-19T05:47:31.894Z,100329.11
2018-09-19T05:48:07.300Z,100334.97
2018-09-19T05:48:42.916Z,100332.31
2018-09-19T05:49:18.459Z,100334.34
2018-09-19T05:49:53.760Z,100325.91
2018-09-19T05:50:28.990Z,100336.33
2018-09-19T05:51:04.624Z,100332.66
2018-09-19T05:51:39.798Z,100334.36
2018-09-19T05:52:15.160Z,100332.19
2018-09-19T05:52:50.632Z,100338.90
2018-09-19T05:53:25.842Z,100338.14
2018-09-19T05:54:01.195Z,100331.16
2018-09-19T05:54:36.419Z,100341.39
2018-09-19T05:55:11.887Z,100336.62
2018-09-19T05:55:47.335Z,100333.26
2018-09-19T05:56:22.696Z,100342.00
2018-09-19T05:56:57.894Z,100341.37
2018-09-19T05:57:33.115Z,100338.48
2018-09-19T05:58:08.326Z,100343.91
2018-09-19T05:58:43.707Z,100337.83
2018-09-19T05:59:19.329Z,100336.88
2018-09-19T05:59:54.712Z,100339.51
2018-09-19T06:00:29.927Z,100347.09
2018-09-19T06:01:05.149Z,100345.11
2018-09-19T06:01:40.388Z,100340.67
2018-09-19T06:02:16.080Z,100341.00
2018-09-19T06:02:51.469Z,100342.78
2018-09-19T06:03:26.644Z,100347.46
2018-09-19T06:04:01.988Z,100347.56
2018-09-19T06:04:37.166Z,100343.05
2018-09-19T06:05:13.045Z,100349.02
2018-09-19T06:05:48.488Z,100345.98
2018-09-19T06:06:24.160Z,100347.36
2018-09-19T06:06:59.476Z,100345.51
2018-09-19T06:07:34.663Z,100342.48
2018-09-19T06:08:09.853Z,100348.16
2018-09-19T06:08:48.492Z,100351.89
2018-09-19T06:09:24.023Z,100345.80
2018-09-19T06:09:59.210Z,100354.64
2018-09-19T06:10:34.578Z,100350.70
2018-09-19T06:11:09.970Z,100347.91
2018-09-19T06:11:45.459Z,100346.69
2018-09-19T06:12:21.185Z,100350.70
2018-09-19T06:12:56.779Z,100345.91
2018-09-19T06:13:32.131Z,100343.73
2018-09-19T06:14:07.664Z,100349.39
2018-09-19T06:14:43.038Z,100348.72
2018-09-19T06:15:18.406Z,100349.66
2018-09-19T06:15:53.806Z,100349.16
2018-09-19T06:16:29.000Z,100350.31
2018-09-19T06:17:04.214Z,100341.10
2018-09-19T06:17:39.450Z,100341.29
2018-09-19T06:18:15.113Z,100345.93
2018-09-19T06:18:50.700Z,100349.39
2018-09-19T06:19:29.661Z,100337.09
2018-09-19T06:20:07.331Z,100342.08
2018-09-19T06:20:48.966Z,100340.39
2018-09-19T06:21:24.850Z,100346.30
2018-09-19T06:22:00.001Z,100346.91
2018-09-19T06:22:35.186Z,100347.51
2018-09-19T06:23:10.426Z,100343.36
2018-09-19T06:23:46.321Z,100349.58
2018-09-19T06:24:21.935Z,100347.06
2018-09-19T06:24:57.238Z,100341.31
2018-09-19T06:25:32.592Z,100339.19
2018-09-19T06:26:08.463Z,100344.23
2018-09-19T06:26:43.803Z,100347.69
2018-09-19T06:27:19.064Z,100345.20
2018-09-19T06:27:54.277Z,100343.76
2018-09-19T06:28:29.471Z,100344.59
2018-09-19T06:29:04.636Z,100346.66
2018-09-19T06:29:39.351Z,100343.12
2018-09-19T06:30:14.948Z,100345.37
2018-09-19T06:30:50.564Z,100345.27
2018-09-19T06:31:26.054Z,100349.22
2018-09-19T06:32:01.238Z,100347.31
2018-09-19T06:32:36.465Z,100346.23
2018-09-19T06:33:12.013Z,100346.66
2018-09-19T06:33:47.419Z,100350.80
2018-09-19T06:34:22.788Z,100351.48
2018-09-19T06:34:58.102Z,100352.95
2018-09-19T06:35:33.277Z,100355.13
2018-09-19T06:36:08.477Z,100349.05
2018-09-19T06:36:43.885Z,100349.41
2018-09-19T06:37:19.163Z,100351.45
2018-09-19T06:37:54.452Z,100349.78
2018-09-19T06:38:29.674Z,100348.68
2018-09-19T06:39:06.238Z,100349.31
2018-09-19T06:39:41.732Z,100348.89
2018-09-19T06:40:17.040Z,100348.75
2018-09-19T06:40:53.086Z,100347.42
2018-09-19T06:41:28.402Z,100345.02
2018-09-19T06:42:03.619Z,100346.84
2018-09-19T06:42:38.798Z,100342.75
2018-09-19T06:43:14.166Z,100346.48
2018-09-19T06:43:49.517Z,100345.27
2018-09-19T06:44:24.731Z,100346.80